Flight Track Log - Related Links

Times and Time Zones

All times are in EDT time to prevent confusion due to time zone crossing. See the SKW6528 flight status page for this flight to view local times or setup timezone preferences in your user account.

Time Position Orientation Groundspeed Altitude Reporting Facility
EDT Latitude Longitude Course Direction KTS MPH feet Rate Location/Type
Tue 12:22:49 PM 39.8833 -104.6000 90° East 184 212 6,300  Level Denver TRACON
Tue 12:23:55 PM 39.8500 -104.5333 123° Southeast 224 258 8,600 1,727 Climbing Denver TRACON
Tue 12:25:00 PM 39.7876 -104.1857 101° East  Level FlightAware Approximate
Tue 12:25:08 PM 39.8183 -104.4192 110° East 272 313 10,300  Level Denver Center
Tue 12:26:00 PM 39.7667 -104.0256 90° East  Level FlightAware Approximate
Tue 12:26:10 PM 39.8064 -104.3056 98° East 321 369 11,800  Level Denver Center
Tue 12:27:00 PM 39.7500 -103.8673 90° East  Level FlightAware Approximate
Tue 12:27:12 PM 39.7917 -104.1831 99° East 341 392 13,300  Level Denver Center
Tue 12:28:00 PM 39.7333 -103.7081 90° East  Level FlightAware Approximate
Tue 12:28:14 PM 39.7767 -104.0467 98° East 353 406 15,200  Level Denver Center
Tue 12:29:16 PM 39.7622 -103.9169 98° East 362 417 16,700 1,500 Climbing Denver Center
Tue 12:30:18 PM 39.7439 -103.7728 99° East 376 433 18,300 1,355 Climbing Denver Center
Tue 12:31:20 PM 39.7336 -103.6472 96° East 370 426 19,500 1,065 Climbing Denver Center
Tue 12:32:22 PM 39.7203 -103.4783 96° East 416 479 20,500 1,113 Climbing Denver Center
Tue 12:33:24 PM 39.7092 -103.3397 96° East 420 483 21,800 1,258 Climbing Denver Center
Tue 12:34:26 PM 39.6953 -103.1683 96° East 425 489 23,100 1,161 Climbing Denver Center
Tue 12:35:28 PM 39.6833 -103.0222 96° East 426 490 24,200 919 Climbing Denver Center
Tue 12:36:30 PM 39.6692 -102.8517 96° East 426 490 25,000 435 Climbing Denver Center
Tue 12:37:32 PM 39.6589 -102.7261 96° East 433 498 25,100  Climbing Denver Center
Tue 12:38:34 PM 39.6397 -102.5142 97° East 457 526 25,000 242 Descending Denver Center
Tue 12:39:36 PM 39.6247 -102.3497 97° East 472 543 25,600 968 Climbing Denver Center
Tue 12:40:38 PM 39.6081 -102.1650 97° East 470 541 27,000 726 Climbing Denver Center
Tue 12:41:40 PM 39.5928 -102.0086 97° East 460 529 27,100 624 Climbing Denver Center
Tue 12:42:43 PM 39.5714 -101.8231 98° East 461 531 28,300 1,104 Climbing Denver Center
Tue 12:43:45 PM 39.5369 -101.6744 107° East 452 520 29,400 823 Climbing Denver Center
Tue 12:44:47 PM 39.4967 -101.5061 107° East 441 507 30,000 532 Climbing Denver Center
Tue 12:45:49 PM 39.4622 -101.3586 107° East 447 514 30,500 581 Climbing Denver Center
Tue 12:46:51 PM 39.4211 -101.1844 107° East 451 519 31,200 629 Climbing Denver Center
Tue 12:47:53 PM 39.3853 -101.0347 107° East 455 524 31,800 581 Climbing Denver Center
Tue 12:48:55 PM 39.3439 -100.8642 107° East 450 518 32,400 532 Climbing Denver Center
Tue 12:49:57 PM 39.3083 -100.7153 107° East 453 521 32,900 339 Climbing Denver Center
Tue 12:50:59 PM 39.2661 -100.5439 108° East 451 519 33,100 97 Climbing Denver Center
Tue 12:52:01 PM 39.2292 -100.3936 108° East 458 527 33,100  Level Denver Center
Tue 12:53:03 PM 39.1850 -100.2139 108° East 471 542 33,100  Level Denver Center
Tue 12:54:17 PM 39.1464 -100.0594 108° East 474 545 33,100  Level Denver Center
Tue 12:55:19 PM 39.0986 -99.8681 108° East 480 552 33,100  Level Denver Center
Tue 12:56:21 PM 39.0589 -99.7106 108° East 483 556 33,100  Level Denver Center
Tue 12:57:24 PM 39.0131 -99.5272 108° East 481 554 33,100  Level Denver Center
Tue 12:58:38 PM 38.9656 -99.3439 108° East 482 555 33,100  Level Denver Center
Tue 12:59:40 PM 38.9119 -99.1372 108° East 478 550 33,100  Level Denver Center
Tue 01:00:42 PM 38.8719 -98.9797 108° East 482 555 33,100  Level Denver Center
Tue 01:00:58 PM 38.8647 -98.9533 109° East 479 551 33,100  Level Kansas City Center
Tue 01:02:00 PM 38.8144 -98.7592 108° East 478 550 33,100  Level Kansas City Center
Tue 01:03:03 PM 38.7708 -98.6006 109° East 473 544 33,100  Level Kansas City Center
Tue 01:04:05 PM 38.7297 -98.4406 108° East 471 542 33,100  Level Kansas City Center
Tue 01:05:07 PM 38.6881 -98.2819 109° East 470 541 33,100  Level Kansas City Center
Tue 01:06:09 PM 38.6453 -98.1264 109° East 465 535 33,100  Level Kansas City Center
Tue 01:07:11 PM 38.6031 -97.9692 109° East 464 534 33,100  Level Kansas City Center
Tue 01:08:13 PM 38.5597 -97.8139 110° East 463 533 33,100  Level Kansas City Center
Tue 01:09:15 PM 38.5092 -97.6275 109° East 460 529 33,100  Level Kansas City Center
Tue 01:10:17 PM 38.4664 -97.4736 110° East 459 528 33,100  Level Kansas City Center
Tue 01:11:19 PM 38.4244 -97.3203 109° East 456 525 33,100  Level Kansas City Center
Tue 01:12:21 PM 38.3811 -97.1667 110° East 458 527 33,100  Level Kansas City Center
Tue 01:13:23 PM 38.3383 -97.0147 110° East 456 525 33,100  Level Kansas City Center
Tue 01:14:25 PM 38.2953 -96.8631 110° East 455 524 33,100  Level Kansas City Center
Tue 01:15:27 PM 38.2525 -96.7114 110° East 454 522 33,100  Level Kansas City Center
Tue 01:16:29 PM 38.2094 -96.5611 110° East 453 521 33,100  Level Kansas City Center
Tue 01:17:31 PM 38.1572 -96.3800 110° East 455 524 33,100  Level Kansas City Center
Tue 01:18:33 PM 38.1147 -96.2303 110° East 450 518 33,100  Level Kansas City Center
Tue 01:19:35 PM 38.0667 -96.0689 111° Southeast 451 519 33,100  Level Kansas City Center
Tue 01:20:37 PM 38.0258 -95.9283 110° East 447 514 33,100  Level Kansas City Center
Tue 01:21:39 PM 37.9775 -95.7650 111° Southeast 444 511 33,100  Level Kansas City Center
Tue 01:22:41 PM 37.9358 -95.6217 110° East 451 519 33,100  Level Kansas City Center
Tue 01:23:43 PM 37.8936 -95.4778 110° East 446 513 33,100 -339 Level Kansas City Center
Tue 01:24:45 PM 37.8497 -95.3325 111° Southeast 443 510 32,400 -823 Descending Kansas City Center
Tue 01:25:47 PM 37.8069 -95.1906 111° Southeast 438 504 31,400 -1,016 Descending Kansas City Center
Tue 01:26:49 PM 37.7572 -95.0283 111° Southeast 433 498 30,300 -1,113 Descending Kansas City Center
Tue 01:27:51 PM 37.7175 -94.8958 111° Southeast 426 490 29,100 -1,935 Descending Kansas City Center
Tue 01:28:53 PM 37.6667 -94.7339 112° Southeast 441 507 26,300 -2,855 Descending Kansas City Center
Tue 01:29:55 PM 37.6225 -94.5886 111° Southeast 444 511 23,200 -2,952 Descending Kansas City Center
Tue 01:30:57 PM 37.5803 -94.4519 111° Southeast 429 494 20,200 -2,952 Descending Kansas City Center
Tue 01:31:59 PM 37.5386 -94.3211 112° Southeast 410 472 17,100 -2,081 Descending Kansas City Center
Tue 01:33:01 PM 37.5006 -94.1958 111° Southeast 393 452 15,900 -2,129 Descending Kansas City Center
Tue 01:34:03 PM 37.4717 -94.0692 106° East 371 427 12,700 -2,516 Descending Kansas City Center
Tue 01:35:05 PM 37.4500 -93.9308 101° East 345 397 10,700 -1,887 Descending Kansas City Center
Tue 01:36:07 PM 37.4342 -93.8314 101° East 308 354 8,800 -1,742 Descending Kansas City Center
Tue 01:37:09 PM 37.4203 -93.7331 100° East 291 335 7,100 -1,645 Descending Kansas City Center
Tue 01:38:11 PM 37.4050 -93.6403 102° East 279 321 5,400 -1,403 Descending Kansas City Center
Tue 01:39:13 PM 37.3903 -93.5508 102° East 270 311 4,200 -1,113 Descending Kansas City Center
Tue 01:40:15 PM 37.3753 -93.4628 102° East 264 304 3,100 -532 Descending Kansas City Center
Tue 01:41:17 PM 37.3644 -93.3917 101° East 207 238 3,100  Level Kansas City Center

Login

Don't have an account? Register now (free) for customized features, flight alerts, and more!